Time;durP1;ratioP1;P1;durP2;ratioP2;P2;SDS_P1;SDS_P2;PMS_P1;PMS_P2;Temp;Humidity;BMP_temperature;BMP_pressure;BME280_temperature;BME280_humidity;BME280_pressure;Samples;Min_cycle;Max_cycle;Signal;HPM_P1;HPM_P2
2022/02/20 00:02:22;;;;;;;3.22;0.98;;;;;;;-148.22;100.00;64452.44;5077585;28;20078;-66
2022/02/20 00:04:49;;;;;;;3.38;0.70;;;;;;;-148.22;100.00;64452.44;5087002;28;20044;-65
2022/02/20 00:07:16;;;;;;;2.05;1.27;;;;;;;-148.22;100.00;64452.44;5068483;28;20037;-65
2022/02/20 00:09:43;;;;;;;4.00;1.15;;;;;;;-148.22;100.00;64452.44;5067197;28;20052;-65
2022/02/20 00:12:09;;;;;;;4.07;1.20;;;;;;;-148.22;100.00;64452.44;5079870;28;20036;-64
2022/02/20 00:14:37;;;;;;;4.47;1.00;;;;;;;-148.22;100.00;64452.44;5084052;28;20044;-64
2022/02/20 00:17:04;;;;;;;5.22;1.00;;;;;;;-148.22;100.00;64452.44;5086065;28;20177;-64
2022/02/20 00:19:31;;;;;;;4.55;0.73;;;;;;;-148.22;100.00;64452.44;5085964;28;20530;-65
2022/02/20 00:21:57;;;;;;;7.85;0.95;;;;;;;-148.22;100.00;64452.44;5070854;28;20035;-65
2022/02/20 00:24:24;;;;;;;1.33;0.77;;;;;;;-148.22;100.00;64452.44;5066671;28;20098;-64
2022/02/20 00:26:50;;;;;;;4.35;1.25;;;;;;;-148.22;100.00;64452.44;5066330;28;20060;-65
2022/02/20 00:29:18;;;;;;;3.75;0.80;;;;;;;-148.22;100.00;64452.44;5068969;28;20060;-64
2022/02/20 00:31:45;;;;;;;6.53;1.58;;;;;;;-148.22;100.00;64452.44;5071751;28;20050;-64
2022/02/20 00:34:11;;;;;;;3.67;0.93;;;;;;;-148.22;100.00;64452.44;5075248;28;20454;-64
2022/02/20 00:36:38;;;;;;;9.02;1.52;;;;;;;-148.22;100.00;64452.44;5066227;28;20040;-65
2022/02/20 00:39:04;;;;;;;0.63;0.50;;;;;;;-148.22;100.00;64452.44;5075996;28;20048;-65
2022/02/20 00:41:31;;;;;;;5.07;1.15;;;;;;;-148.22;100.00;64452.44;5074327;28;20049;-65
2022/02/20 00:43:58;;;;;;;4.72;0.55;;;;;;;-148.22;100.00;64452.44;5078886;28;20044;-65
2022/02/20 00:46:24;;;;;;;1.95;0.80;;;;;;;-148.22;100.00;64452.44;5086437;28;20052;-65
2022/02/20 00:48:51;;;;;;;4.40;1.02;;;;;;;-148.22;100.00;64452.44;5084666;28;20051;-65
2022/02/20 00:51:18;;;;;;;4.65;0.90;;;;;;;-148.22;100.00;64452.44;5079220;28;20064;-64
2022/02/20 00:53:45;;;;;;;4.63;0.70;;;;;;;-148.22;100.00;64452.44;5088109;28;20060;-65
2022/02/20 00:56:11;;;;;;;3.60;1.05;;;;;;;-148.22;100.00;64452.44;5066482;28;20036;-65
2022/02/20 00:58:38;;;;;;;7.65;1.30;;;;;;;-148.22;100.00;64452.44;5079047;28;20573;-64
2022/02/20 01:01:05;;;;;;;2.83;0.77;;;;;;;-148.22;100.00;64452.44;5082042;28;20043;-64
2022/02/20 01:03:32;;;;;;;2.85;0.80;;;;;;;-148.22;100.00;64452.44;5085216;28;20063;-65
2022/02/20 01:06:01;;;;;;;3.55;1.10;;;;;;;-148.22;100.00;64452.44;5081374;28;20051;-65
2022/02/20 01:08:28;;;;;;;4.32;0.90;;;;;;;-148.22;100.00;64452.44;5082792;28;20643;-64
2022/02/20 01:10:55;;;;;;;1.52;0.50;;;;;;;-148.22;100.00;64452.44;5085696;28;20044;-64
2022/02/20 01:13:21;;;;;;;3.92;0.80;;;;;;;-148.22;100.00;64452.44;5078910;28;20527;-64
2022/02/20 01:15:48;;;;;;;2.55;0.80;;;;;;;-148.22;100.00;64452.44;5073262;28;20526;-64
2022/02/20 01:18:15;;;;;;;1.70;0.70;;;;;;;-148.22;100.00;64452.44;5079368;28;20037;-65
2022/02/20 01:20:41;;;;;;;3.35;0.63;;;;;;;-148.22;100.00;64452.44;5064643;28;20044;-65
2022/02/20 01:23:08;;;;;;;2.67;0.65;;;;;;;-148.22;100.00;64452.44;5069689;28;20539;-64
2022/02/20 01:25:35;;;;;;;4.80;1.00;;;;;;;-148.22;100.00;64452.44;5065597;28;20033;-65
2022/02/20 01:28:02;;;;;;;1.45;0.77;;;;;;;-148.22;100.00;64452.44;5071743;28;20047;-65
2022/02/20 01:30:29;;;;;;;5.47;1.38;;;;;;;-148.22;100.00;64452.44;5084420;28;20047;-65
2022/02/20 01:32:55;;;;;;;3.10;1.00;;;;;;;-148.22;100.00;64452.44;5086624;28;20585;-65
2022/02/20 01:35:22;;;;;;;5.18;1.42;;;;;;;-148.22;100.00;64452.44;5081582;28;20147;-65
2022/02/20 01:37:49;;;;;;;4.55;1.45;;;;;;;-148.22;100.00;64452.44;5080589;28;20047;-65
2022/02/20 01:40:16;;;;;;;3.50;0.95;;;;;;;-148.22;100.00;64452.44;5078119;28;20039;-64
2022/02/20 01:42:43;;;;;;;3.08;0.85;;;;;;;-148.22;100.00;64452.44;5083947;28;20113;-65
2022/02/20 01:45:13;;;;;;;5.18;1.08;;;;;;;-148.22;100.00;64452.44;5079406;28;20041;-64
2022/02/20 01:47:40;;;;;;;1.80;0.60;;;;;;;-148.22;100.00;64452.44;5066195;28;20134;-66
2022/02/20 01:50:08;;;;;;;3.05;1.08;;;;;;;-148.22;100.00;64452.44;5087726;28;20040;-64
2022/02/20 01:52:36;;;;;;;5.68;1.10;;;;;;;-148.22;100.00;64452.44;5101086;28;20054;-64
2022/02/20 01:55:07;;;;;;;3.20;0.73;;;;;;;-148.22;100.00;64452.44;5085353;28;20045;-65
2022/02/20 01:57:50;;;;;;;3.03;0.85;;;;;;;-148.22;100.00;64452.44;5068721;28;20194;-64
2022/02/20 02:00:45;;;;;;;2.70;0.77;;;;;;;-148.22;100.00;64452.44;5078372;28;21712;-66
2022/02/20 02:03:33;;;;;;;1.83;0.57;;;;;;;-148.22;100.00;64452.44;5084340;28;20044;-65
2022/02/20 02:06:08;;;;;;;1.70;0.63;;;;;;;-148.22;100.00;64452.44;5068980;28;20049;-65
2022/02/20 02:08:35;;;;;;;0.77;0.43;;;;;;;-148.22;100.00;64452.44;5084675;28;20052;-65
2022/02/20 02:11:26;;;;;;;3.45;0.73;;;;;;;-148.22;100.00;64452.44;5083341;28;20050;-65
2022/02/20 02:14:19;;;;;;;1.17;0.60;;;;;;;-148.22;100.00;64452.44;5062985;28;20580;-65
2022/02/20 02:17:12;;;;;;;4.00;1.05;;;;;;;-148.22;100.00;64452.44;5062198;28;20626;-66
2022/02/20 02:19:47;;;;;;;6.95;1.10;;;;;;;-148.22;100.00;64452.44;5086817;28;20098;-65
2022/02/20 02:22:24;;;;;;;4.90;1.27;;;;;;;-148.22;100.00;64452.44;5085614;28;20040;-65
2022/02/20 02:25:09;;;;;;;4.90;1.42;;;;;;;-148.22;100.00;64452.44;5085932;28;20139;-65
2022/02/20 02:27:51;;;;;;;1.95;0.90;;;;;;;-148.22;100.00;64452.44;5067322;28;20040;-65
2022/02/20 02:30:33;;;;;;;;;;;;;;;-148.22;100.00;64452.44;5067757;28;20053;-65
2022/02/20 02:33:00;;;;;;;3.63;0.50;;;;;;;-148.22;100.00;64452.44;5074147;28;19924;-66
2022/02/20 02:35:27;;;;;;;3.00;0.75;;;;;;;-148.22;100.00;64452.44;5068851;28;20037;-65
2022/02/20 02:37:54;;;;;;;4.72;0.90;;;;;;;-148.22;100.00;64452.44;5068862;28;20098;-66
2022/02/20 02:40:23;;;;;;;1.40;0.70;;;;;;;-148.22;100.00;64452.44;5085647;28;20503;-65
2022/02/20 02:42:50;;;;;;;3.25;1.02;;;;;;;-148.22;100.00;64452.44;5085999;28;20119;-65
2022/02/20 02:45:17;;;;;;;7.35;0.88;;;;;;;-148.22;100.00;64452.44;5086978;28;20040;-65
2022/02/20 02:47:47;;;;;;;3.00;0.52;;;;;;;-148.22;100.00;64452.44;5067261;28;20685;-65
2022/02/20 02:50:16;;;;;;;2.25;0.73;;;;;;;-148.22;100.00;64452.44;5067021;28;20075;-65
2022/02/20 02:52:42;;;;;;;7.80;1.00;;;;;;;-148.22;100.00;64452.44;5070944;28;20033;-65
2022/02/20 02:55:09;;;;;;;4.43;0.88;;;;;;;-148.22;100.00;64452.44;5070964;28;20043;-64
2022/02/20 02:57:35;;;;;;;5.75;1.00;;;;;;;-148.22;100.00;64452.44;5086192;28;20044;-65
2022/02/20 03:00:03;;;;;;;4.05;0.85;;;;;;;-148.22;100.00;64452.44;5087395;28;20048;-64
2022/02/20 03:02:30;;;;;;;4.38;0.90;;;;;;;-148.22;100.00;64452.44;5069994;28;20037;-64
2022/02/20 03:05:00;;;;;;;4.57;1.33;;;;;;;-148.22;100.00;64452.44;5068027;28;20066;-65
2022/02/20 03:07:28;;;;;;;1.75;0.65;;;;;;;-148.22;100.00;64452.44;5066684;28;20051;-65
2022/02/20 03:09:54;;;;;;;4.97;0.73;;;;;;;-148.22;100.00;64452.44;5067910;28;20040;-65
2022/02/20 03:12:21;;;;;;;2.90;0.98;;;;;;;-148.22;100.00;64452.44;5073263;28;20032;-65
2022/02/20 03:14:48;;;;;;;1.45;0.40;;;;;;;-148.22;100.00;64452.44;5076266;28;20511;-65
2022/02/20 03:17:15;;;;;;;3.55;0.60;;;;;;;-148.22;100.00;64452.44;5084680;28;20048;-65
2022/02/20 03:19:41;;;;;;;1.75;0.82;;;;;;;-148.22;100.00;64452.44;5065502;28;20048;-65
2022/02/20 03:22:08;;;;;;;4.30;0.75;;;;;;;-148.22;100.00;64452.44;5067064;28;20036;-65
2022/02/20 03:24:35;;;;;;;4.78;1.00;;;;;;;-148.22;100.00;64452.44;5067948;28;20054;-65
2022/02/20 03:27:02;;;;;;;5.05;1.13;;;;;;;-148.22;100.00;64452.44;5068066;28;20079;-65
2022/02/20 03:29:33;;;;;;;;;;;;;;;-148.22;100.00;64452.44;5077859;28;20044;-65
2022/02/20 03:32:01;;;;;;;6.50;0.80;;;;;;;-148.22;100.00;64452.44;5071046;28;19935;-63
2022/02/20 03:34:27;;;;;;;3.42;0.50;;;;;;;-148.22;100.00;64452.44;5066036;28;20508;-66
2022/02/20 03:36:57;;;;;;;6.72;0.85;;;;;;;-148.22;100.00;64452.44;5066282;28;20041;-65
2022/02/20 03:39:33;;;;;;;2.45;1.02;;;;;;;-148.22;100.00;64452.44;5079042;28;20074;-65
2022/02/20 03:42:05;;;;;;;0.75;0.40;;;;;;;-148.22;100.00;64452.44;5085355;28;20052;-65
2022/02/20 03:44:52;;;;;;;1.52;0.60;;;;;;;-148.22;100.00;64452.44;5065796;28;20048;-64
2022/02/20 03:47:19;;;;;;;4.07;1.15;;;;;;;-148.22;100.00;64452.44;5085833;28;20105;-65
2022/02/20 03:49:53;;;;;;;1.50;0.50;;;;;;;-148.22;100.00;64452.44;5062328;28;20044;-65
2022/02/20 03:52:35;;;;;;;;;;;;;;;-148.22;100.00;64452.44;5082324;28;20048;-65
2022/02/20 03:55:08;;;;;;;2.10;0.73;;;;;;;-148.22;100.00;64452.44;5086172;28;19920;-65
2022/02/20 03:57:39;;;;;;;2.65;0.82;;;;;;;-148.22;100.00;64452.44;5078966;28;20047;-65
2022/02/20 04:00:20;;;;;;;2.15;0.70;;;;;;;-148.22;100.00;64452.44;5067800;28;20048;-65
2022/02/20 04:03:09;;;;;;;2.25;0.80;;;;;;;-148.22;100.00;64452.44;5065255;28;20522;-65
2022/02/20 04:05:40;;;;;;;2.58;0.80;;;;;;;-148.22;100.00;64452.44;5065804;28;20040;-64
2022/02/20 04:08:08;;;;;;;2.72;0.68;;;;;;;-148.22;100.00;64452.44;5064757;28;20106;-65
2022/02/20 04:10:35;;;;;;;2.88;0.70;;;;;;;-148.22;100.00;64452.44;5069536;28;20055;-65
2022/02/20 04:13:07;;;;;;;2.53;0.45;;;;;;;-148.22;100.00;64452.44;5073347;28;20060;-65
2022/02/20 04:15:46;;;;;;;4.07;0.70;;;;;;;-148.22;100.00;64452.44;5069032;28;20041;-65
2022/02/20 04:18:21;;;;;;;2.17;0.47;;;;;;;-148.22;100.00;64452.44;5065413;28;20589;-65
2022/02/20 04:21:17;;;;;;;2.20;0.57;;;;;;;-148.22;100.00;64452.44;5059338;28;20566;-65
2022/02/20 04:23:44;;;;;;;3.13;0.70;;;;;;;-148.22;100.00;64452.44;5085599;28;20036;-64
2022/02/20 04:26:15;;;;;;;1.73;0.93;;;;;;;-148.22;100.00;64452.44;5084445;28;20527;-64
2022/02/20 04:28:41;;;;;;;3.13;0.57;;;;;;;-148.22;100.00;64452.44;5064953;28;20136;-64
2022/02/20 04:31:08;;;;;;;3.80;0.63;;;;;;;-148.22;100.00;64452.44;5064831;28;20651;-65
2022/02/20 04:33:36;;;;;;;2.00;0.70;;;;;;;-148.22;100.00;64452.44;5064748;28;20036;-64
2022/02/20 04:36:03;;;;;;;0.50;0.43;;;;;;;-148.22;100.00;64452.44;5064936;28;20044;-65
2022/02/20 04:38:31;;;;;;;1.85;0.75;;;;;;;-148.22;100.00;64452.44;5071121;28;20426;-65
2022/02/20 04:41:03;;;;;;;4.95;1.33;;;;;;;-148.22;100.00;64452.44;5085335;28;20450;-64
2022/02/20 04:43:33;;;;;;;5.30;0.70;;;;;;;-148.22;100.00;64452.44;5084358;28;20180;-65
2022/02/20 04:46:06;;;;;;;2.45;0.73;;;;;;;-148.22;100.00;64452.44;5084981;28;20123;-65
2022/02/20 04:48:33;;;;;;;2.50;0.73;;;;;;;-148.22;100.00;64452.44;5086154;28;20117;-65
2022/02/20 04:51:02;;;;;;;5.75;0.75;;;;;;;-148.22;100.00;64452.44;5084953;28;20059;-65
2022/02/20 04:53:29;;;;;;;5.15;1.02;;;;;;;-148.22;100.00;64452.44;5073024;28;20040;-65
2022/02/20 04:55:57;;;;;;;3.92;0.88;;;;;;;-148.22;100.00;64452.44;5064569;28;20045;-65
2022/02/20 04:58:34;;;;;;;1.98;0.75;;;;;;;-148.22;100.00;64452.44;5064141;28;20106;-64
2022/02/20 05:01:03;;;;;;;3.38;1.05;;;;;;;-148.22;100.00;64452.44;5083718;28;20071;-65
2022/02/20 05:03:49;;;;;;;5.22;1.08;;;;;;;-148.22;100.00;64452.44;5065536;28;20425;-65
2022/02/20 05:06:42;;;;;;;3.15;0.80;;;;;;;-148.22;100.00;64452.44;5064696;28;20045;-65
2022/02/20 05:09:14;;;;;;;3.95;0.55;;;;;;;-148.22;100.00;64452.44;5064820;28;20174;-65
2022/02/20 05:11:51;;;;;;;1.40;0.52;;;;;;;-148.22;100.00;64452.44;5065895;28;20041;-65
2022/02/20 05:14:17;;;;;;;1.80;0.80;;;;;;;-148.22;100.00;64452.44;5065762;28;20036;-64
2022/02/20 05:16:46;;;;;;;2.28;0.70;;;;;;;-148.22;100.00;64452.44;5064695;28;20042;-65
2022/02/20 05:19:19;;;;;;;3.80;0.60;;;;;;;-148.22;100.00;64452.44;5064887;28;20440;-65
2022/02/20 05:21:53;;;;;;;2.05;0.68;;;;;;;-148.22;100.00;64452.44;5070361;28;20515;-65
2022/02/20 05:24:21;;;;;;;3.75;0.70;;;;;;;-148.22;100.00;64452.44;5083601;28;20050;-65
2022/02/20 05:26:51;;;;;;;1.40;0.60;;;;;;;-148.22;100.00;64452.44;5078994;28;20047;-64
2022/02/20 05:29:19;;;;;;;5.25;0.77;;;;;;;-148.22;100.00;64452.44;5064540;28;20044;-65
2022/02/20 05:31:49;;;;;;;3.08;0.90;;;;;;;-148.22;100.00;64452.44;5065093;28;20552;-64
2022/02/20 05:34:19;;;;;;;2.63;0.65;;;;;;;-148.22;100.00;64452.44;5064580;28;20560;-65
2022/02/20 05:36:46;;;;;;;0.98;0.50;;;;;;;-148.22;100.00;64452.44;5077258;28;20503;-65
2022/02/20 05:39:26;;;;;;;2.10;0.80;;;;;;;-148.22;100.00;64452.44;5079718;28;20040;-65
2022/02/20 05:41:57;;;;;;;1.50;0.73;;;;;;;-148.22;100.00;64452.44;5083115;28;20091;-65
2022/02/20 05:44:24;;;;;;;0.73;0.30;;;;;;;-148.22;100.00;64452.44;5083763;28;20040;-65
2022/02/20 05:46:56;;;;;;;3.33;0.70;;;;;;;-148.22;100.00;64452.44;5083836;28;20059;-65
2022/02/20 05:49:24;;;;;;;0.98;0.52;;;;;;;-148.22;100.00;64452.44;5084244;28;20048;-65
2022/02/20 05:51:57;;;;;;;2.15;0.80;;;;;;;-148.22;100.00;64452.44;5072010;28;20038;-65
2022/02/20 05:54:32;;;;;;;1.67;0.70;;;;;;;-148.22;100.00;64452.44;5075208;28;20045;-65
2022/02/20 05:57:00;;;;;;;2.45;0.82;;;;;;;-148.22;100.00;64452.44;5083019;28;20042;-65
2022/02/20 05:59:27;;;;;;;9.32;1.55;;;;;;;-148.22;100.00;64452.44;5080529;28;20040;-65
2022/02/20 06:01:55;;;;;;;3.47;0.85;;;;;;;-148.22;100.00;64452.44;5070506;28;20523;-64
2022/02/20 06:04:24;;;;;;;4.78;0.88;;;;;;;-148.22;100.00;64452.44;5067815;28;20033;-65
2022/02/20 06:06:51;;;;;;;2.30;0.73;;;;;;;-148.22;100.00;64452.44;5064358;28;20044;-65
2022/02/20 06:09:25;;;;;;;1.80;0.60;;;;;;;-148.22;100.00;64452.44;5064009;28;20052;-65
2022/02/20 06:11:57;;;;;;;2.35;0.50;;;;;;;-148.22;100.00;64452.44;5064100;28;20731;-64
2022/02/20 06:14:47;;;;;;;1.17;0.60;;;;;;;-148.22;100.00;64452.44;5064533;28;20088;-65
2022/02/20 06:17:21;;;;;;;1.73;0.60;;;;;;;-148.22;100.00;64452.44;5064143;28;20118;-64
2022/02/20 06:20:08;;;;;;;2.80;0.55;;;;;;;-148.22;100.00;64452.44;5103440;28;20048;-65
2022/02/20 06:22:43;;;;;;;4.00;1.20;;;;;;;-148.22;100.00;64452.44;5100804;28;20048;-64
2022/02/20 06:25:31;;;;;;;2.78;0.80;;;;;;;-148.22;100.00;64452.44;5071377;28;20037;-65
2022/02/20 06:28:17;;;;;;;1.58;0.73;;;;;;;-148.22;100.00;64452.44;5071442;28;20145;-65
2022/02/20 06:30:44;;;;;;;4.65;0.63;;;;;;;-148.22;100.00;64452.44;5083142;28;20447;-65
2022/02/20 06:33:21;;;;;;;1.67;0.60;;;;;;;-148.22;100.00;64452.44;5082414;28;20032;-65
2022/02/20 06:35:48;;;;;;;0.73;0.50;;;;;;;-148.22;100.00;64452.44;5085241;28;20055;-65
2022/02/20 06:38:16;;;;;;;0.85;0.45;;;;;;;-148.22;100.00;64452.44;5081456;28;20760;-65
2022/02/20 06:40:45;;;;;;;1.20;0.40;;;;;;;-148.22;100.00;64452.44;5085348;28;20068;-65
2022/02/20 06:43:13;;;;;;;1.02;0.40;;;;;;;-148.22;100.00;64452.44;5086946;28;20058;-65
2022/02/20 06:45:42;;;;;;;1.33;0.57;;;;;;;-148.22;100.00;64452.44;5069040;28;20037;-65
2022/02/20 06:48:26;;;;;;;0.85;0.40;;;;;;;-148.22;100.00;64452.44;5066969;28;20064;-64
2022/02/20 06:51:11;;;;;;;2.88;0.80;;;;;;;-148.22;100.00;64452.44;5067665;28;20052;-65
2022/02/20 06:54:01;;;;;;;2.58;0.47;;;;;;;-148.22;100.00;64452.44;5093403;28;20105;-64
2022/02/20 06:56:57;;;;;;;0.55;0.30;;;;;;;-148.22;100.00;64452.44;5072216;28;20055;-65
2022/02/20 06:59:24;;;;;;;0.90;0.20;;;;;;;-148.22;100.00;64452.44;5068672;28;20562;-65
2022/02/20 07:01:51;;;;;;;1.42;0.40;;;;;;;-148.22;100.00;64452.44;5078872;28;20073;-65
2022/02/20 07:04:18;;;;;;;3.25;0.50;;;;;;;-148.22;100.00;64452.44;5073481;28;20048;-65
2022/02/20 07:06:45;;;;;;;1.08;0.40;;;;;;;-148.22;100.00;64452.44;5071326;28;20044;-64
2022/02/20 07:09:13;;;;;;;0.35;0.22;;;;;;;-148.22;100.00;64452.44;5078893;28;20044;-64
2022/02/20 07:11:41;;;;;;;1.77;0.30;;;;;;;-148.22;100.00;64452.44;5080229;28;20119;-64
2022/02/20 07:14:08;;;;;;;0.70;0.40;;;;;;;-148.22;100.00;64452.44;5076520;28;20032;-64
2022/02/20 07:16:35;;;;;;;0.77;0.25;;;;;;;-148.22;100.00;64452.44;5076981;28;20057;-64
2022/02/20 07:19:02;;;;;;;0.80;0.30;;;;;;;-148.22;100.00;64452.44;5083818;28;20036;-64
2022/02/20 07:21:29;;;;;;;0.93;0.35;;;;;;;-148.22;100.00;64452.44;5060878;28;20423;-65
2022/02/20 07:24:01;;;;;;;1.27;0.50;;;;;;;-148.22;100.00;64452.44;5081959;28;20662;-64
2022/02/20 07:26:29;;;;;;;0.60;0.40;;;;;;;-148.22;100.00;64452.44;5076361;28;20046;-65
2022/02/20 07:28:56;;;;;;;0.47;0.30;;;;;;;-148.22;100.00;64452.44;5084539;28;20040;-65
2022/02/20 07:31:23;;;;;;;2.70;0.40;;;;;;;-148.22;100.00;64452.44;5072475;28;20044;-65
2022/02/20 07:33:53;;;;;;;1.23;0.50;;;;;;;-148.22;100.00;64452.44;5082119;28;20515;-65
2022/02/20 07:36:23;;;;;;;0.63;0.40;;;;;;;-148.22;100.00;64452.44;5074772;28;20039;-64
2022/02/20 07:38:50;;;;;;;0.90;0.38;;;;;;;-148.22;100.00;64452.44;5076829;28;20056;-65
2022/02/20 07:41:17;;;;;;;0.90;0.60;;;;;;;-148.22;100.00;64452.44;5067041;28;20063;-65
2022/02/20 07:43:46;;;;;;;0.75;0.55;;;;;;;-148.22;100.00;64452.44;5077823;28;20499;-65
2022/02/20 07:46:13;;;;;;;0.52;0.30;;;;;;;-148.22;100.00;64452.44;5081413;28;20610;-65
2022/02/20 07:48:40;;;;;;;1.88;0.55;;;;;;;-148.22;100.00;64452.44;5068720;28;20571;-64
2022/02/20 07:51:07;;;;;;;1.05;0.47;;;;;;;-148.22;100.00;64452.44;5067071;28;20050;-64
2022/02/20 07:53:34;;;;;;;2.38;0.40;;;;;;;-148.22;100.00;64452.44;5076256;28;20040;-64
2022/02/20 07:56:00;;;;;;;2.45;0.45;;;;;;;-148.22;100.00;64452.44;5086169;28;20048;-64
2022/02/20 07:58:27;;;;;;;2.80;0.80;;;;;;;-148.22;100.00;64452.44;5067312;28;20048;-64
2022/02/20 08:00:54;;;;;;;1.05;0.50;;;;;;;-148.22;100.00;64452.44;5067013;28;20072;-64
2022/02/20 08:03:20;;;;;;;0.57;0.32;;;;;;;-148.22;100.00;64452.44;5074398;28;20044;-64
2022/02/20 08:05:47;;;;;;;1.15;0.60;;;;;;;-148.22;100.00;64452.44;5078182;28;20068;-51
2022/02/20 08:08:14;;;;;;;0.98;0.57;;;;;;;-148.22;100.00;64452.44;5078397;28;20044;-53
2022/02/20 08:10:41;;;;;;;1.95;0.55;;;;;;;-148.22;100.00;64452.44;5083741;28;20235;-54
2022/02/20 08:13:07;;;;;;;1.15;0.45;;;;;;;-148.22;100.00;64452.44;5078905;28;20056;-51
2022/02/20 08:15:34;;;;;;;1.05;0.40;;;;;;;-148.22;100.00;64452.44;5077304;28;20040;-53
2022/02/20 08:18:01;;;;;;;2.08;0.50;;;;;;;-148.22;100.00;64452.44;5083528;28;20044;-51
2022/02/20 08:20:27;;;;;;;2.15;0.70;;;;;;;-148.22;100.00;64452.44;5078133;28;20043;-48
2022/02/20 08:22:54;;;;;;;3.35;0.60;;;;;;;-148.22;100.00;64452.44;5091308;28;20525;-49
2022/02/20 08:25:20;;;;;;;0.68;0.40;;;;;;;-148.22;100.00;64452.44;5075339;28;20036;-55
2022/02/20 08:27:49;;;;;;;2.38;0.70;;;;;;;-148.22;100.00;64452.44;5076023;28;20044;-65
2022/02/20 08:30:16;;;;;;;3.28;0.60;;;;;;;-148.22;100.00;64452.44;5073337;28;20051;-65
2022/02/20 08:32:44;;;;;;;1.52;0.50;;;;;;;-148.22;100.00;64452.44;5091110;28;20099;-64
2022/02/20 08:35:11;;;;;;;1.77;0.50;;;;;;;-148.22;100.00;64452.44;5089275;28;20040;-65
2022/02/20 08:37:43;;;;;;;0.90;0.57;;;;;;;-148.22;100.00;64452.44;5082861;28;20056;-65
2022/02/20 08:40:12;;;;;;;2.20;0.50;;;;;;;-148.22;100.00;64452.44;5084455;28;20040;-65
2022/02/20 08:42:38;;;;;;;4.95;0.93;;;;;;;-148.22;100.00;64452.44;5075330;28;20052;-65
2022/02/20 08:45:06;;;;;;;2.22;0.60;;;;;;;-148.22;100.00;64452.44;5074793;28;20043;-65
2022/02/20 08:47:33;;;;;;;3.03;0.93;;;;;;;-148.22;100.00;64452.44;5080778;28;20044;-65
2022/02/20 08:50:02;;;;;;;3.70;0.82;;;;;;;-148.22;100.00;64452.44;5083413;28;20153;-65
2022/02/20 08:52:29;;;;;;;0.88;0.50;;;;;;;-148.22;100.00;64452.44;5102316;28;20526;-65
2022/02/20 08:54:56;;;;;;;3.28;0.55;;;;;;;-148.22;100.00;64452.44;5081489;28;20040;-65
2022/02/20 08:57:23;;;;;;;0.28;0.28;;;;;;;-148.22;100.00;64452.44;5095652;28;20371;-65
2022/02/20 08:59:49;;;;;;;1.30;0.50;;;;;;;-148.22;100.00;64452.44;5077186;28;20054;-65
2022/02/20 09:02:16;;;;;;;2.75;0.68;;;;;;;-148.22;100.00;64452.44;5091208;28;20051;-65
2022/02/20 09:04:43;;;;;;;0.93;0.43;;;;;;;-148.22;100.00;64452.44;5063644;28;20048;-65
2022/02/20 09:07:09;;;;;;;2.17;0.40;;;;;;;-148.22;100.00;64452.44;5091287;28;20043;-65
2022/02/20 09:09:36;;;;;;;0.50;0.40;;;;;;;-148.22;100.00;64452.44;5070697;28;20054;-65
2022/02/20 09:12:04;;;;;;;2.55;0.40;;;;;;;-148.22;100.00;64452.44;5081527;28;20044;-65
2022/02/20 09:14:31;;;;;;;3.80;0.52;;;;;;;-148.22;100.00;64452.44;5083117;28;20048;-65
2022/02/20 09:17:00;;;;;;;1.38;0.52;;;;;;;-148.22;100.00;64452.44;5083103;28;20055;-65
2022/02/20 09:19:29;;;;;;;1.60;0.50;;;;;;;-148.22;100.00;64452.44;5080873;28;20040;-65
2022/02/20 09:21:56;;;;;;;1.38;0.77;;;;;;;-148.22;100.00;64452.44;5083508;28;20040;-65
2022/02/20 09:24:22;;;;;;;1.48;0.65;;;;;;;-148.22;100.00;64452.44;5082281;28;20051;-65
2022/02/20 09:26:53;;;;;;;0.80;0.50;;;;;;;-148.22;100.00;64452.44;5077186;28;20032;-65
2022/02/20 09:29:20;;;;;;;0.75;0.38;;;;;;;-148.22;100.00;64452.44;5085359;28;20047;-65
2022/02/20 09:31:46;;;;;;;1.23;0.40;;;;;;;-148.22;100.00;64452.44;5083094;28;20043;-65
2022/02/20 09:34:13;;;;;;;0.93;0.43;;;;;;;-148.22;100.00;64452.44;5091558;28;20051;-65
2022/02/20 09:36:40;;;;;;;1.10;0.40;;;;;;;-148.22;100.00;64452.44;5092873;28;20730;-64
2022/02/20 09:39:06;;;;;;;1.65;0.50;;;;;;;-148.22;100.00;64452.44;5092868;28;20051;-64
2022/02/20 09:41:35;;;;;;;1.30;0.50;;;;;;;-148.22;100.00;64452.44;5075882;28;20052;-65
2022/02/20 09:44:03;;;;;;;0.88;0.50;;;;;;;-148.22;100.00;64452.44;5094998;28;20044;-64
2022/02/20 09:46:30;;;;;;;0.57;0.35;;;;;;;-148.22;100.00;64452.44;5081357;28;20106;-64
2022/02/20 09:48:59;;;;;;;0.52;0.40;;;;;;;-148.22;100.00;64452.44;5083225;28;20097;-64
2022/02/20 09:51:28;;;;;;;0.93;0.38;;;;;;;-148.22;100.00;64452.44;5085341;28;20058;-65
2022/02/20 09:53:56;;;;;;;2.03;0.57;;;;;;;-148.22;100.00;64452.44;5081031;28;20631;-64
2022/02/20 09:56:24;;;;;;;1.67;0.52;;;;;;;-148.22;100.00;64452.44;5083607;28;20036;-64
2022/02/20 09:58:51;;;;;;;0.82;0.40;;;;;;;-148.22;100.00;64452.44;5097278;28;20050;-64
2022/02/20 10:01:17;;;;;;;1.45;0.40;;;;;;;-148.22;100.00;64452.44;5078556;28;20116;-64
2022/02/20 10:03:46;;;;;;;2.30;0.30;;;;;;;-148.22;100.00;64452.44;5083819;28;20075;-64
2022/02/20 10:06:25;;;;;;;1.45;0.50;;;;;;;-148.22;100.00;64452.44;5073848;28;20131;-64
2022/02/20 10:08:54;;;;;;;2.85;0.60;;;;;;;-148.22;100.00;64452.44;5079294;28;20035;-64
2022/02/20 10:11:31;;;;;;;0.85;0.30;;;;;;;-148.22;100.00;64452.44;5075055;28;20086;-65
2022/02/20 10:14:20;;;;;;;1.05;0.47;;;;;;;-148.22;100.00;64452.44;5094420;28;20044;-65
2022/02/20 10:16:46;;;;;;;1.75;0.60;;;;;;;-148.22;100.00;64452.44;5084804;28;20048;-65
2022/02/20 10:19:32;;;;;;;2.10;0.60;;;;;;;-148.22;100.00;64452.44;5078541;28;20136;-65
2022/02/20 10:22:44;;;;;;;1.70;0.93;;;;;;;-148.22;100.00;64452.44;5086508;28;20050;-64
2022/02/20 10:25:29;;;;;;;1.58;0.50;;;;;;;-148.22;100.00;64452.44;5084641;28;20059;-64
2022/02/20 10:28:15;;;;;;;2.38;0.90;;;;;;;-148.22;100.00;64452.44;5087409;28;20173;-64
2022/02/20 10:30:49;;;;;;;2.08;0.68;;;;;;;-148.22;100.00;64452.44;5083193;28;20043;-65
2022/02/20 10:33:20;;;;;;;1.75;0.30;;;;;;;-148.22;100.00;64452.44;5079426;28;20059;-65
2022/02/20 10:35:52;;;;;;;0.30;0.20;;;;;;;-148.22;100.00;64452.44;5083970;28;20125;-64
2022/02/20 10:38:23;;;;;;;1.35;0.30;;;;;;;-148.22;100.00;64452.44;5085901;28;20040;-65
2022/02/20 10:40:52;;;;;;;0.68;0.35;;;;;;;-148.22;100.00;64452.44;5085639;28;20044;-64
2022/02/20 10:43:34;;;;;;;1.02;0.40;;;;;;;-148.22;100.00;64452.44;5087637;28;20059;-65
2022/02/20 10:46:06;;;;;;;;;;;;;;;-148.22;100.00;64452.44;5082386;28;20123;-64
2022/02/20 10:48:45;;;;;;;0.80;0.32;;;;;;;-148.22;100.00;64452.44;5087209;28;20019;-65
2022/02/20 10:51:13;;;;;;;1.38;0.40;;;;;;;-148.22;100.00;64452.44;5085793;28;20097;-65
2022/02/20 10:53:41;;;;;;;0.55;0.30;;;;;;;-148.22;100.00;64452.44;5088490;28;20095;-64
2022/02/20 10:56:08;;;;;;;1.00;0.40;;;;;;;-148.22;100.00;64452.44;5087903;28;20044;-65
2022/02/20 10:58:44;;;;;;;0.68;0.50;;;;;;;-148.22;100.00;64452.44;5087747;28;20055;-65
2022/02/20 11:01:24;;;;;;;1.48;0.40;;;;;;;-148.22;100.00;64452.44;5076485;28;20040;-64
2022/02/20 11:04:01;;;;;;;0.22;0.20;;;;;;;-148.22;100.00;64452.44;5079141;28;20086;-64
2022/02/20 11:06:30;;;;;;;2.17;1.15;;;;;;;-148.22;100.00;64452.44;5081984;28;20035;-64
2022/02/20 11:08:57;;;;;;;2.05;0.50;;;;;;;-148.22;100.00;64452.44;5087906;28;20040;-64
2022/02/20 11:11:38;;;;;;;1.38;0.30;;;;;;;-148.22;100.00;64452.44;5086707;28;20040;-64
2022/02/20 11:14:07;;;;;;;0.80;0.30;;;;;;;-148.22;100.00;64452.44;5083761;28;20440;-64
2022/02/20 11:16:38;;;;;;;3.63;0.50;;;;;;;-148.22;100.00;64452.44;5082959;28;20048;-64
2022/02/20 11:19:06;;;;;;;0.28;0.25;;;;;;;-148.22;100.00;64452.44;5084318;28;20036;-64
2022/02/20 11:21:41;;;;;;;0.93;0.30;;;;;;;-148.22;100.00;64452.44;5085357;28;20439;-64
2022/02/20 11:24:09;;;;;;;1.27;0.50;;;;;;;-148.22;100.00;64452.44;5082023;28;20039;-65
2022/02/20 11:26:38;;;;;;;0.55;0.25;;;;;;;-148.22;100.00;64452.44;5085680;28;20046;-64